sensor_id;sensor_type;location;lat;lon;timestamp;pressure;altitude;pressure_sealevel;temperature
68510;BMP180;55512;50.102;19.958;2023-02-15T00:01:57;100333.60;;;4.38
68510;BMP180;55512;50.102;19.958;2023-02-15T00:04:25;100328.60;;;4.30
68510;BMP180;55512;50.102;19.958;2023-02-15T00:07:09;100323.60;;;4.30
68510;BMP180;55512;50.102;19.958;2023-02-15T00:09:35;100321.20;;;4.30
68510;BMP180;55512;50.102;19.958;2023-02-15T00:12:00;100318.40;;;4.30
68510;BMP180;55512;50.102;19.958;2023-02-15T00:14:26;100324.40;;;4.30
68510;BMP180;55512;50.102;19.958;2023-02-15T00:16:52;100329.20;;;4.36
68510;BMP180;55512;50.102;19.958;2023-02-15T00:19:20;100332.60;;;4.40
68510;BMP180;55512;50.102;19.958;2023-02-15T00:21:48;100325.60;;;4.36
68510;BMP180;55512;50.102;19.958;2023-02-15T00:24:16;100321.00;;;4.30
68510;BMP180;55512;50.102;19.958;2023-02-15T00:26:43;100316.80;;;4.32
68510;BMP180;55512;50.102;19.958;2023-02-15T00:29:10;100315.20;;;4.30
68510;BMP180;55512;50.102;19.958;2023-02-15T00:31:36;100314.20;;;4.30
68510;BMP180;55512;50.102;19.958;2023-02-15T00:34:11;100313.60;;;4.30
68510;BMP180;55512;50.102;19.958;2023-02-15T00:36:37;100315.20;;;4.30
68510;BMP180;55512;50.102;19.958;2023-02-15T00:39:04;100311.60;;;4.30
68510;BMP180;55512;50.102;19.958;2023-02-15T00:41:31;100307.40;;;4.22
68510;BMP180;55512;50.102;19.958;2023-02-15T00:43:57;100309.80;;;4.30
68510;BMP180;55512;50.102;19.958;2023-02-15T00:46:22;100308.40;;;4.30
68510;BMP180;55512;50.102;19.958;2023-02-15T00:48:48;100301.60;;;4.28
68510;BMP180;55512;50.102;19.958;2023-02-15T00:51:13;100300.40;;;4.28
68510;BMP180;55512;50.102;19.958;2023-02-15T00:53:39;100299.20;;;4.30
68510;BMP180;55512;50.102;19.958;2023-02-15T00:56:05;100300.20;;;4.28
68510;BMP180;55512;50.102;19.958;2023-02-15T00:58:30;100299.00;;;4.22
68510;BMP180;55512;50.102;19.958;2023-02-15T01:01:04;100296.00;;;4.20
68510;BMP180;55512;50.102;19.958;2023-02-15T01:03:31;100292.60;;;4.20
68510;BMP180;55512;50.102;19.958;2023-02-15T01:05:56;100282.80;;;4.20
68510;BMP180;55512;50.102;19.958;2023-02-15T01:08:22;100274.80;;;4.20
68510;BMP180;55512;50.102;19.958;2023-02-15T01:10:47;100274.20;;;4.18
68510;BMP180;55512;50.102;19.958;2023-02-15T01:13:15;100265.80;;;4.16
68510;BMP180;55512;50.102;19.958;2023-02-15T01:15:42;100272.00;;;4.10
68510;BMP180;55512;50.102;19.958;2023-02-15T01:18:09;100272.40;;;4.10
68510;BMP180;55512;50.102;19.958;2023-02-15T01:20:38;100269.20;;;4.10
68510;BMP180;55512;50.102;19.958;2023-02-15T01:23:07;100273.00;;;4.10
68510;BMP180;55512;50.102;19.958;2023-02-15T01:25:35;100270.40;;;4.10
68510;BMP180;55512;50.102;19.958;2023-02-15T01:28:01;100264.40;;;4.10
68510;BMP180;55512;50.102;19.958;2023-02-15T01:30:27;100265.40;;;4.10
68510;BMP180;55512;50.102;19.958;2023-02-15T01:32:53;100261.60;;;4.10
68510;BMP180;55512;50.102;19.958;2023-02-15T01:35:18;100260.00;;;4.10
68510;BMP180;55512;50.102;19.958;2023-02-15T01:37:44;100258.60;;;4.10
68510;BMP180;55512;50.102;19.958;2023-02-15T01:40:16;100259.40;;;4.10
68510;BMP180;55512;50.102;19.958;2023-02-15T01:42:43;100261.60;;;4.18
68510;BMP180;55512;50.102;19.958;2023-02-15T01:45:26;100261.20;;;4.18
68510;BMP180;55512;50.102;19.958;2023-02-15T01:48:20;100259.00;;;4.20
68510;BMP180;55512;50.102;19.958;2023-02-15T01:50:54;100250.80;;;4.20
68510;BMP180;55512;50.102;19.958;2023-02-15T01:53:40;100247.40;;;4.20
68510;BMP180;55512;50.102;19.958;2023-02-15T01:56:14;100249.80;;;4.20
68510;BMP180;55512;50.102;19.958;2023-02-15T01:58:42;100245.40;;;4.20
68510;BMP180;55512;50.102;19.958;2023-02-15T02:01:08;100244.80;;;4.20
68510;BMP180;55512;50.102;19.958;2023-02-15T02:06:33;100241.60;;;4.20
68510;BMP180;55512;50.102;19.958;2023-02-15T02:08:58;100239.40;;;4.18
68510;BMP180;55512;50.102;19.958;2023-02-15T02:11:25;100242.80;;;4.10
68510;BMP180;55512;50.102;19.958;2023-02-15T02:13:52;100237.20;;;4.10
68510;BMP180;55512;50.102;19.958;2023-02-15T02:25:12;100230.20;;;4.00
68510;BMP180;55512;50.102;19.958;2023-02-15T02:41:17;100207.40;;;3.88
68510;BMP180;55512;50.102;19.958;2023-02-15T02:44:10;100204.20;;;3.90
68510;BMP180;55512;50.102;19.958;2023-02-15T02:46:53;100216.20;;;3.90
68510;BMP180;55512;50.102;19.958;2023-02-15T02:49:31;100209.20;;;3.90
68510;BMP180;55512;50.102;19.958;2023-02-15T02:51:59;100208.60;;;3.90
68510;BMP180;55512;50.102;19.958;2023-02-15T02:54:25;100211.00;;;3.90
68510;BMP180;55512;50.102;19.958;2023-02-15T02:56:53;100211.00;;;3.90
68510;BMP180;55512;50.102;19.958;2023-02-15T02:59:33;100211.40;;;3.90
68510;BMP180;55512;50.102;19.958;2023-02-15T03:02:11;100203.60;;;3.88
68510;BMP180;55512;50.102;19.958;2023-02-15T03:04:43;100201.00;;;3.90
68510;BMP180;55512;50.102;19.958;2023-02-15T03:07:20;100203.60;;;3.90
68510;BMP180;55512;50.102;19.958;2023-02-15T03:09:54;100199.20;;;3.90
68510;BMP180;55512;50.102;19.958;2023-02-15T03:12:26;100198.80;;;3.90
68510;BMP180;55512;50.102;19.958;2023-02-15T03:15:04;100197.20;;;3.90
68510;BMP180;55512;50.102;19.958;2023-02-15T03:17:36;100193.40;;;3.90
68510;BMP180;55512;50.102;19.958;2023-02-15T03:20:11;100193.00;;;3.84
68510;BMP180;55512;50.102;19.958;2023-02-15T03:22:48;100192.40;;;3.82
68510;BMP180;55512;50.102;19.958;2023-02-15T03:25:25;100189.20;;;3.80
68510;BMP180;55512;50.102;19.958;2023-02-15T03:27:59;100184.60;;;3.80
68510;BMP180;55512;50.102;19.958;2023-02-15T03:30:28;100179.80;;;3.80
68510;BMP180;55512;50.102;19.958;2023-02-15T03:32:58;100185.80;;;3.90
68510;BMP180;55512;50.102;19.958;2023-02-15T03:35:29;100179.40;;;3.88
68510;BMP180;55512;50.102;19.958;2023-02-15T03:38:01;100184.80;;;3.90
68510;BMP180;55512;50.102;19.958;2023-02-15T03:40:42;100181.60;;;3.84
68510;BMP180;55512;50.102;19.958;2023-02-15T03:46:00;100176.20;;;3.80
68510;BMP180;55512;50.102;19.958;2023-02-15T03:48:43;100171.60;;;3.80
68510;BMP180;55512;50.102;19.958;2023-02-15T03:51:17;100168.40;;;3.80
68510;BMP180;55512;50.102;19.958;2023-02-15T03:54:10;100164.60;;;3.80
68510;BMP180;55512;50.102;19.958;2023-02-15T03:56:41;100172.20;;;3.80
68510;BMP180;55512;50.102;19.958;2023-02-15T03:59:07;100167.60;;;3.80
68510;BMP180;55512;50.102;19.958;2023-02-15T04:02:16;100172.00;;;3.80
68510;BMP180;55512;50.102;19.958;2023-02-15T04:04:48;100168.20;;;3.80
68510;BMP180;55512;50.102;19.958;2023-02-15T04:07:13;100174.60;;;3.90
68510;BMP180;55512;50.102;19.958;2023-02-15T04:09:39;100172.40;;;3.80
68510;BMP180;55512;50.102;19.958;2023-02-15T04:12:23;100178.80;;;3.80
68510;BMP180;55512;50.102;19.958;2023-02-15T04:14:49;100178.80;;;3.80
68510;BMP180;55512;50.102;19.958;2023-02-15T04:17:33;100177.00;;;3.80
68510;BMP180;55512;50.102;19.958;2023-02-15T04:19:58;100174.60;;;3.80
68510;BMP180;55512;50.102;19.958;2023-02-15T04:22:42;100177.80;;;3.80
68510;BMP180;55512;50.102;19.958;2023-02-15T04:25:27;100181.20;;;3.80
68510;BMP180;55512;50.102;19.958;2023-02-15T04:27:54;100179.60;;;3.80
68510;BMP180;55512;50.102;19.958;2023-02-15T04:30:24;100178.00;;;3.80
68510;BMP180;55512;50.102;19.958;2023-02-15T04:32:50;100172.80;;;3.80
68510;BMP180;55512;50.102;19.958;2023-02-15T04:35:16;100176.60;;;3.80
68510;BMP180;55512;50.102;19.958;2023-02-15T04:37:43;100177.60;;;3.80
68510;BMP180;55512;50.102;19.958;2023-02-15T04:40:12;100171.60;;;3.78
68510;BMP180;55512;50.102;19.958;2023-02-15T04:42:38;100174.80;;;3.80
68510;BMP180;55512;50.102;19.958;2023-02-15T04:45:04;100167.00;;;3.80
68510;BMP180;55512;50.102;19.958;2023-02-15T04:47:30;100170.40;;;3.80
68510;BMP180;55512;50.102;19.958;2023-02-15T04:49:55;100169.40;;;3.80
68510;BMP180;55512;50.102;19.958;2023-02-15T04:52:21;100171.20;;;3.80
68510;BMP180;55512;50.102;19.958;2023-02-15T04:54:47;100171.80;;;3.80
68510;BMP180;55512;50.102;19.958;2023-02-15T04:57:13;100171.60;;;3.80
68510;BMP180;55512;50.102;19.958;2023-02-15T04:59:38;100175.20;;;3.80
68510;BMP180;55512;50.102;19.958;2023-02-15T05:02:04;100174.00;;;3.80
68510;BMP180;55512;50.102;19.958;2023-02-15T05:04:29;100175.40;;;3.80
68510;BMP180;55512;50.102;19.958;2023-02-15T05:06:55;100174.60;;;3.80
68510;BMP180;55512;50.102;19.958;2023-02-15T05:09:20;100175.00;;;3.80
68510;BMP180;55512;50.102;19.958;2023-02-15T05:11:46;100178.00;;;3.88
68510;BMP180;55512;50.102;19.958;2023-02-15T05:14:11;100183.20;;;3.90
68510;BMP180;55512;50.102;19.958;2023-02-15T05:16:37;100173.40;;;3.90
68510;BMP180;55512;50.102;19.958;2023-02-15T05:19:03;100175.20;;;3.90
68510;BMP180;55512;50.102;19.958;2023-02-15T05:21:28;100178.20;;;3.90
68510;BMP180;55512;50.102;19.958;2023-02-15T05:23:54;100173.80;;;3.90
68510;BMP180;55512;50.102;19.958;2023-02-15T05:26:23;100173.40;;;3.90
68510;BMP180;55512;50.102;19.958;2023-02-15T05:29:08;100172.00;;;3.90
68510;BMP180;55512;50.102;19.958;2023-02-15T05:31:36;100170.40;;;3.90
68510;BMP180;55512;50.102;19.958;2023-02-15T05:34:02;100173.00;;;3.86
68510;BMP180;55512;50.102;19.958;2023-02-15T05:36:29;100172.60;;;3.80
68510;BMP180;55512;50.102;19.958;2023-02-15T05:38:55;100175.40;;;3.82
68510;BMP180;55512;50.102;19.958;2023-02-15T05:41:20;100177.60;;;3.80
68510;BMP180;55512;50.102;19.958;2023-02-15T05:43:46;100179.00;;;3.82
68510;BMP180;55512;50.102;19.958;2023-02-15T05:46:12;100183.20;;;3.80
68510;BMP180;55512;50.102;19.958;2023-02-15T05:48:38;100186.20;;;3.80
68510;BMP180;55512;50.102;19.958;2023-02-15T05:51:10;100183.40;;;3.80
68510;BMP180;55512;50.102;19.958;2023-02-15T05:53:39;100181.60;;;3.80
68510;BMP180;55512;50.102;19.958;2023-02-15T05:56:08;100183.20;;;3.80
68510;BMP180;55512;50.102;19.958;2023-02-15T05:58:38;100181.20;;;3.80
68510;BMP180;55512;50.102;19.958;2023-02-15T06:01:22;100181.20;;;3.80
68510;BMP180;55512;50.102;19.958;2023-02-15T06:03:48;100176.40;;;3.80
68510;BMP180;55512;50.102;19.958;2023-02-15T06:06:14;100177.40;;;3.78
68510;BMP180;55512;50.102;19.958;2023-02-15T06:08:40;100181.40;;;3.72
68510;BMP180;55512;50.102;19.958;2023-02-15T06:11:06;100178.60;;;3.70
68510;BMP180;55512;50.102;19.958;2023-02-15T06:13:33;100178.60;;;3.70
68510;BMP180;55512;50.102;19.958;2023-02-15T06:15:58;100175.40;;;3.70
68510;BMP180;55512;50.102;19.958;2023-02-15T06:18:24;100178.60;;;3.76
68510;BMP180;55512;50.102;19.958;2023-02-15T06:20:50;100177.20;;;3.80
68510;BMP180;55512;50.102;19.958;2023-02-15T06:23:16;100180.60;;;3.80
68510;BMP180;55512;50.102;19.958;2023-02-15T06:25:41;100179.60;;;3.80
68510;BMP180;55512;50.102;19.958;2023-02-15T06:28:07;100180.80;;;3.80
68510;BMP180;55512;50.102;19.958;2023-02-15T06:30:32;100182.40;;;3.80
68510;BMP180;55512;50.102;19.958;2023-02-15T06:32:58;100187.40;;;3.86
68510;BMP180;55512;50.102;19.958;2023-02-15T06:35:24;100185.40;;;3.90
68510;BMP180;55512;50.102;19.958;2023-02-15T06:37:50;100184.60;;;3.90
68510;BMP180;55512;50.102;19.958;2023-02-15T06:40:15;100185.40;;;3.90
68510;BMP180;55512;50.102;19.958;2023-02-15T06:42:42;100184.20;;;3.92
68510;BMP180;55512;50.102;19.958;2023-02-15T06:45:08;100186.80;;;3.96
68510;BMP180;55512;50.102;19.958;2023-02-15T06:47:34;100183.80;;;3.98
68510;BMP180;55512;50.102;19.958;2023-02-15T06:50:00;100187.20;;;4.00
68510;BMP180;55512;50.102;19.958;2023-02-15T06:52:25;100191.60;;;4.00
68510;BMP180;55512;50.102;19.958;2023-02-15T06:54:51;100187.40;;;4.00
68510;BMP180;55512;50.102;19.958;2023-02-15T06:57:16;100186.60;;;4.00
68510;BMP180;55512;50.102;19.958;2023-02-15T06:59:50;100189.80;;;4.00
68510;BMP180;55512;50.102;19.958;2023-02-15T07:02:15;100187.00;;;4.00
68510;BMP180;55512;50.102;19.958;2023-02-15T07:04:41;100185.80;;;4.00
68510;BMP180;55512;50.102;19.958;2023-02-15T07:07:09;100180.40;;;4.00
68510;BMP180;55512;50.102;19.958;2023-02-15T07:09:35;100183.00;;;4.00
68510;BMP180;55512;50.102;19.958;2023-02-15T07:12:02;100179.20;;;4.00
68510;BMP180;55512;50.102;19.958;2023-02-15T07:14:46;100179.20;;;4.00
68510;BMP180;55512;50.102;19.958;2023-02-15T07:17:11;100178.00;;;4.10
68510;BMP180;55512;50.102;19.958;2023-02-15T07:19:37;100181.60;;;4.10
68510;BMP180;55512;50.102;19.958;2023-02-15T07:22:02;100177.00;;;4.10
68510;BMP180;55512;50.102;19.958;2023-02-15T07:24:30;100175.40;;;4.14
68510;BMP180;55512;50.102;19.958;2023-02-15T07:26:56;100169.80;;;4.20
68510;BMP180;55512;50.102;19.958;2023-02-15T07:29:23;100174.20;;;4.20
68510;BMP180;55512;50.102;19.958;2023-02-15T07:31:48;100175.60;;;4.20
68510;BMP180;55512;50.102;19.958;2023-02-15T07:34:13;100172.60;;;4.20
68510;BMP180;55512;50.102;19.958;2023-02-15T07:36:39;100171.20;;;4.22
68510;BMP180;55512;50.102;19.958;2023-02-15T07:39:05;100172.60;;;4.30
68510;BMP180;55512;50.102;19.958;2023-02-15T07:41:30;100171.00;;;4.30
68510;BMP180;55512;50.102;19.958;2023-02-15T07:43:55;100174.60;;;4.30
68510;BMP180;55512;50.102;19.958;2023-02-15T07:46:21;100174.20;;;4.30
68510;BMP180;55512;50.102;19.958;2023-02-15T07:48:47;100166.40;;;4.32
68510;BMP180;55512;50.102;19.958;2023-02-15T07:51:13;100168.40;;;4.40
68510;BMP180;55512;50.102;19.958;2023-02-15T07:53:40;100166.00;;;4.40
68510;BMP180;55512;50.102;19.958;2023-02-15T07:56:10;100168.80;;;4.40
68510;BMP180;55512;50.102;19.958;2023-02-15T07:58:37;100162.80;;;4.40
68510;BMP180;55512;50.102;19.958;2023-02-15T08:01:26;100161.00;;;4.50
68510;BMP180;55512;50.102;19.958;2023-02-15T08:03:54;100167.40;;;4.50
68510;BMP180;55512;50.102;19.958;2023-02-15T08:06:25;100166.20;;;4.60
68510;BMP180;55512;50.102;19.958;2023-02-15T08:08:51;100164.00;;;4.60
68510;BMP180;55512;50.102;19.958;2023-02-15T08:11:25;100163.00;;;4.70
68510;BMP180;55512;50.102;19.958;2023-02-15T08:13:57;100162.20;;;4.70
68510;BMP180;55512;50.102;19.958;2023-02-15T08:16:32;100156.40;;;4.74
68510;BMP180;55512;50.102;19.958;2023-02-15T08:19:03;100152.40;;;4.78
68510;BMP180;55512;50.102;19.958;2023-02-15T08:21:30;100155.00;;;4.80
68510;BMP180;55512;50.102;19.958;2023-02-15T08:23:57;100157.80;;;4.80
68510;BMP180;55512;50.102;19.958;2023-02-15T08:26:24;100159.20;;;4.84
68510;BMP180;55512;50.102;19.958;2023-02-15T08:28:51;100158.60;;;4.90
68510;BMP180;55512;50.102;19.958;2023-02-15T08:31:17;100155.00;;;4.92
68510;BMP180;55512;50.102;19.958;2023-02-15T08:33:44;100151.80;;;5.00
68510;BMP180;55512;50.102;19.958;2023-02-15T08:36:18;100147.60;;;5.10
68510;BMP180;55512;50.102;19.958;2023-02-15T08:38:44;100147.80;;;5.14
68510;BMP180;55512;50.102;19.958;2023-02-15T08:43:42;100149.60;;;5.30
68510;BMP180;55512;50.102;19.958;2023-02-15T08:46:12;100143.80;;;5.30
68510;BMP180;55512;50.102;19.958;2023-02-15T08:48:37;100146.40;;;5.40
68510;BMP180;55512;50.102;19.958;2023-02-15T08:51:15;100145.40;;;5.40
68510;BMP180;55512;50.102;19.958;2023-02-15T08:53:46;100141.60;;;5.46
68510;BMP180;55512;50.102;19.958;2023-02-15T08:56:15;100142.40;;;5.50
68510;BMP180;55512;50.102;19.958;2023-02-15T08:58:41;100145.80;;;5.60
68510;BMP180;55512;50.102;19.958;2023-02-15T09:01:15;100149.20;;;5.68
68510;BMP180;55512;50.102;19.958;2023-02-15T09:03:47;100145.00;;;5.70
68510;BMP180;55512;50.102;19.958;2023-02-15T09:06:16;100142.60;;;5.80
68510;BMP180;55512;50.102;19.958;2023-02-15T09:08:45;100144.40;;;5.80
68510;BMP180;55512;50.102;19.958;2023-02-15T09:11:17;100145.40;;;5.90
68510;BMP180;55512;50.102;19.958;2023-02-15T09:13:51;100149.60;;;6.00
68510;BMP180;55512;50.102;19.958;2023-02-15T09:16:17;100142.00;;;6.00
68510;BMP180;55512;50.102;19.958;2023-02-15T09:18:43;100141.80;;;6.00
68510;BMP180;55512;50.102;19.958;2023-02-15T09:21:13;100139.20;;;5.90
68510;BMP180;55512;50.102;19.958;2023-02-15T09:23:40;100137.80;;;5.80
68510;BMP180;55512;50.102;19.958;2023-02-15T09:26:21;100133.20;;;5.80
68510;BMP180;55512;50.102;19.958;2023-02-15T09:28:55;100134.20;;;5.80
68510;BMP180;55512;50.102;19.958;2023-02-15T09:31:26;100129.20;;;5.80
68510;BMP180;55512;50.102;19.958;2023-02-15T09:33:52;100123.00;;;5.90
68510;BMP180;55512;50.102;19.958;2023-02-15T09:36:20;100122.00;;;5.86
68510;BMP180;55512;50.102;19.958;2023-02-15T09:38:55;100123.40;;;5.80
68510;BMP180;55512;50.102;19.958;2023-02-15T09:56:19;100107.40;;;6.08
68510;BMP180;55512;50.102;19.958;2023-02-15T10:05:26;100102.20;;;6.10
68510;BMP180;55512;50.102;19.958;2023-02-15T10:08:30;100092.00;;;6.10
68510;BMP180;55512;50.102;19.958;2023-02-15T10:24:25;100086.40;;;6.10
68510;BMP180;55512;50.102;19.958;2023-02-15T10:26:48;100075.80;;;6.10
68510;BMP180;55512;50.102;19.958;2023-02-15T10:29:35;100073.00;;;6.10
68510;BMP180;55512;50.102;19.958;2023-02-15T10:32:23;100067.80;;;6.10
68510;BMP180;55512;50.102;19.958;2023-02-15T10:37:59;100061.20;;;6.10
68510;BMP180;55512;50.102;19.958;2023-02-15T10:40:57;100057.20;;;6.10
68510;BMP180;55512;50.102;19.958;2023-02-15T10:44:18;100061.00;;;6.10
68510;BMP180;55512;50.102;19.958;2023-02-15T10:50:20;100058.00;;;6.10
68510;BMP180;55512;50.102;19.958;2023-02-15T10:56:34;100045.80;;;6.28
68510;BMP180;55512;50.102;19.958;2023-02-15T11:07:34;100034.80;;;6.40
68510;BMP180;55512;50.102;19.958;2023-02-15T11:13:12;100023.00;;;6.50
68510;BMP180;55512;50.102;19.958;2023-02-15T11:15:51;100020.20;;;6.50
68510;BMP180;55512;50.102;19.958;2023-02-15T11:18:34;100019.20;;;6.60
68510;BMP180;55512;50.102;19.958;2023-02-15T11:23:41;100014.20;;;6.64
68510;BMP180;55512;50.102;19.958;2023-02-15T11:26:37;100016.40;;;6.70
68510;BMP180;55512;50.102;19.958;2023-02-15T11:31:47;100009.40;;;6.80
68510;BMP180;55512;50.102;19.958;2023-02-15T11:34:31;100006.80;;;6.80
68510;BMP180;55512;50.102;19.958;2023-02-15T11:37:06;100004.20;;;6.90
68510;BMP180;55512;50.102;19.958;2023-02-15T11:39:37;99996.20;;;6.90
68510;BMP180;55512;50.102;19.958;2023-02-15T11:42:25;99995.40;;;7.00
68510;BMP180;55512;50.102;19.958;2023-02-15T11:47:41;99983.00;;;7.10
68510;BMP180;55512;50.102;19.958;2023-02-15T11:50:15;99984.00;;;7.20
68510;BMP180;55512;50.102;19.958;2023-02-15T11:52:41;99982.80;;;7.24
68510;BMP180;55512;50.102;19.958;2023-02-15T11:55:16;99982.80;;;7.30
68510;BMP180;55512;50.102;19.958;2023-02-15T11:57:53;99979.40;;;7.40
68510;BMP180;55512;50.102;19.958;2023-02-15T12:00:35;99975.80;;;7.50
68510;BMP180;55512;50.102;19.958;2023-02-15T12:06:18;99973.20;;;7.60
68510;BMP180;55512;50.102;19.958;2023-02-15T12:09:03;99969.40;;;7.66
68510;BMP180;55512;50.102;19.958;2023-02-15T12:11:39;99960.20;;;7.70
68510;BMP180;55512;50.102;19.958;2023-02-15T12:14:12;99957.00;;;7.80
68510;BMP180;55512;50.102;19.958;2023-02-15T12:16:49;99954.80;;;7.80
68510;BMP180;55512;50.102;19.958;2023-02-15T12:21:52;99954.60;;;8.00
68510;BMP180;55512;50.102;19.958;2023-02-15T12:24:27;99948.20;;;8.10
68510;BMP180;55512;50.102;19.958;2023-02-15T12:27:06;99941.60;;;8.20
68510;BMP180;55512;50.102;19.958;2023-02-15T12:32:29;99938.00;;;8.30
68510;BMP180;55512;50.102;19.958;2023-02-15T12:37:32;99940.80;;;8.50
68510;BMP180;55512;50.102;19.958;2023-02-15T12:40:11;99935.40;;;8.60
68510;BMP180;55512;50.102;19.958;2023-02-15T12:42:44;99933.00;;;8.60
68510;BMP180;55512;50.102;19.958;2023-02-15T12:48:18;99932.80;;;8.80
68510;BMP180;55512;50.102;19.958;2023-02-15T12:50:49;99936.00;;;8.94
68510;BMP180;55512;50.102;19.958;2023-02-15T12:53:30;99932.40;;;9.04
68510;BMP180;55512;50.102;19.958;2023-02-15T12:55:58;99930.40;;;9.20
68510;BMP180;55512;50.102;19.958;2023-02-15T12:58:30;99926.00;;;9.30
68510;BMP180;55512;50.102;19.958;2023-02-15T13:01:16;99925.00;;;9.30
68510;BMP180;55512;50.102;19.958;2023-02-15T13:04:03;99921.60;;;9.40
68510;BMP180;55512;50.102;19.958;2023-02-15T13:06:34;99917.40;;;9.50
68510;BMP180;55512;50.102;19.958;2023-02-15T13:12:26;99912.20;;;9.74
68510;BMP180;55512;50.102;19.958;2023-02-15T13:14:54;99912.80;;;9.90
68510;BMP180;55512;50.102;19.958;2023-02-15T13:17:27;99914.40;;;10.00
68510;BMP180;55512;50.102;19.958;2023-02-15T13:20:17;99905.60;;;10.02
68510;BMP180;55512;50.102;19.958;2023-02-15T13:22:46;99903.80;;;10.12
68510;BMP180;55512;50.102;19.958;2023-02-15T13:25:21;99901.40;;;10.20
68510;BMP180;55512;50.102;19.958;2023-02-15T13:27:57;99900.60;;;10.26
68510;BMP180;55512;50.102;19.958;2023-02-15T13:30:40;99899.40;;;10.36
68510;BMP180;55512;50.102;19.958;2023-02-15T13:33:34;99900.00;;;10.42
68510;BMP180;55512;50.102;19.958;2023-02-15T13:36:29;99901.40;;;10.60
68510;BMP180;55512;50.102;19.958;2023-02-15T14:00:01;99878.80;;;11.60
68510;BMP180;55512;50.102;19.958;2023-02-15T14:17:55;99871.40;;;12.48
68510;BMP180;55512;50.102;19.958;2023-02-15T14:29:58;99872.20;;;12.80
68510;BMP180;55512;50.102;19.958;2023-02-15T14:32:05;99867.80;;;13.00
68510;BMP180;55512;50.102;19.958;2023-02-15T14:34:52;99867.40;;;13.44
68510;BMP180;55512;50.102;19.958;2023-02-15T14:37:32;99867.20;;;14.90
68510;BMP180;55512;50.102;19.958;2023-02-15T14:40:30;99872.80;;;17.20
68510;BMP180;55512;50.102;19.958;2023-02-15T14:43:40;99875.20;;;19.28
68510;BMP180;55512;50.102;19.958;2023-02-15T14:49:17;99878.20;;;22.34
68510;BMP180;55512;50.102;19.958;2023-02-15T15:00:36;99884.20;;;25.24
68510;BMP180;55512;50.102;19.958;2023-02-15T15:03:28;99887.80;;;25.90
68510;BMP180;55512;50.102;19.958;2023-02-15T15:08:37;99885.40;;;26.62
68510;BMP180;55512;50.102;19.958;2023-02-15T15:13:57;99883.20;;;26.54
68510;BMP180;55512;50.102;19.958;2023-02-15T15:19:02;99879.40;;;26.30
68510;BMP180;55512;50.102;19.958;2023-02-15T15:27:50;99872.80;;;23.80
68510;BMP180;55512;50.102;19.958;2023-02-15T15:33:07;99863.20;;;22.30
68510;BMP180;55512;50.102;19.958;2023-02-15T15:39:18;99861.80;;;19.64
68510;BMP180;55512;50.102;19.958;2023-02-15T15:42:01;99858.60;;;18.44
68510;BMP180;55512;50.102;19.958;2023-02-15T15:49:57;99846.20;;;15.76
68510;BMP180;55512;50.102;19.958;2023-02-15T15:52:24;99842.20;;;15.08
68510;BMP180;55512;50.102;19.958;2023-02-15T15:55:20;99836.60;;;14.52
68510;BMP180;55512;50.102;19.958;2023-02-15T15:57:51;99836.80;;;13.86
68510;BMP180;55512;50.102;19.958;2023-02-15T16:00:50;99837.80;;;13.34
68510;BMP180;55512;50.102;19.958;2023-02-15T16:03:24;99832.40;;;12.80
68510;BMP180;55512;50.102;19.958;2023-02-15T16:05:50;99828.80;;;12.40
68510;BMP180;55512;50.102;19.958;2023-02-15T16:11:21;99827.60;;;11.38
68510;BMP180;55512;50.102;19.958;2023-02-15T16:13:48;99825.60;;;11.20
68510;BMP180;55512;50.102;19.958;2023-02-15T16:16:21;99826.80;;;10.90
68510;BMP180;55512;50.102;19.958;2023-02-15T16:18:48;99822.60;;;10.60
68510;BMP180;55512;50.102;19.958;2023-02-15T16:21:20;99826.80;;;10.30
68510;BMP180;55512;50.102;19.958;2023-02-15T16:29:32;99817.60;;;9.50
68510;BMP180;55512;50.102;19.958;2023-02-15T16:32:23;99818.00;;;9.24
68510;BMP180;55512;50.102;19.958;2023-02-15T16:35:01;99809.60;;;8.98
68510;BMP180;55512;50.102;19.958;2023-02-15T16:37:33;99806.40;;;8.76
68510;BMP180;55512;50.102;19.958;2023-02-15T16:40:00;99801.00;;;8.60
68510;BMP180;55512;50.102;19.958;2023-02-15T16:42:26;99800.60;;;8.38
68510;BMP180;55512;50.102;19.958;2023-02-15T16:47:34;99801.60;;;8.02
68510;BMP180;55512;50.102;19.958;2023-02-15T16:50:04;99799.40;;;7.90
68510;BMP180;55512;50.102;19.958;2023-02-15T16:52:29;99795.20;;;7.74
68510;BMP180;55512;50.102;19.958;2023-02-15T16:55:00;99795.20;;;7.60
68510;BMP180;55512;50.102;19.958;2023-02-15T16:57:32;99796.40;;;7.40
68510;BMP180;55512;50.102;19.958;2023-02-15T17:00:19;99796.60;;;7.26
68510;BMP180;55512;50.102;19.958;2023-02-15T17:03:20;99796.00;;;7.10
68510;BMP180;55512;50.102;19.958;2023-02-15T17:06:26;99796.40;;;7.00
68510;BMP180;55512;50.102;19.958;2023-02-15T17:09:03;99793.40;;;6.80
68510;BMP180;55512;50.102;19.958;2023-02-15T17:11:41;99792.80;;;6.70
68510;BMP180;55512;50.102;19.958;2023-02-15T17:16:41;99789.20;;;6.50
68510;BMP180;55512;50.102;19.958;2023-02-15T17:19:20;99792.60;;;6.40
68510;BMP180;55512;50.102;19.958;2023-02-15T17:22:00;99791.40;;;6.30
68510;BMP180;55512;50.102;19.958;2023-02-15T17:24:38;99788.00;;;6.20
68510;BMP180;55512;50.102;19.958;2023-02-15T17:27:15;99787.40;;;6.10
68510;BMP180;55512;50.102;19.958;2023-02-15T17:29:54;99786.80;;;6.10
68510;BMP180;55512;50.102;19.958;2023-02-15T17:32:25;99784.80;;;6.00
68510;BMP180;55512;50.102;19.958;2023-02-15T17:37:45;99784.80;;;5.80
68510;BMP180;55512;50.102;19.958;2023-02-15T17:40:27;99775.80;;;5.70
68510;BMP180;55512;50.102;19.958;2023-02-15T17:42:53;99781.20;;;5.60
68510;BMP180;55512;50.102;19.958;2023-02-15T17:45:21;99780.40;;;5.60
68510;BMP180;55512;50.102;19.958;2023-02-15T17:47:48;99772.40;;;5.50
68510;BMP180;55512;50.102;19.958;2023-02-15T17:50:25;99770.20;;;5.50
68510;BMP180;55512;50.102;19.958;2023-02-15T17:52:53;99767.20;;;5.40
68510;BMP180;55512;50.102;19.958;2023-02-15T17:55:22;99767.00;;;5.40
68510;BMP180;55512;50.102;19.958;2023-02-15T17:58:13;99765.40;;;5.30
68510;BMP180;55512;50.102;19.958;2023-02-15T18:00:45;99763.00;;;5.20